KIPT/IPT METAR and TAF weather

Enter ICAO airport designator
Station Type Date Time Source
KIPT METAR 2020/11/28 19:54 UTC NOAA

KIPT 281954Z 28010KT 10SM CLR 10/M02 A3003 RMK AO2 SLP169 T01001022 $


Station Type Date Time Source
KIPT Decoded METAR 2020/11/28 19:54 UTC NOAA

WILLIAMSPORT-LYCOMING COUNTY, PA, United States (KIPT) 41-15N 076-55W 164M
Nov 28, 2020 - 02:54 PM EST / 2020.11.28 1954 UTC
Wind: from the W (280 degrees) at 12 MPH (10 KT):0
Visibility: 10 mile(s):0
Sky conditions: clear
Temperature: 50.0 F (10.0 C)
Dew Point: 28.0 F (-2.2 C)
Relative Humidity: 42%
Pressure (altimeter): 30.03 in. Hg (1016 hPa)
ob: KIPT 281954Z 28010KT 10SM CLR 10/M02 A3003 RMK AO2 SLP169 T01001022
cycle: 20

Station Type Date Time Source
KIPT TAF 2020/11/28 18:36 UTC NOAA

TAF KIPT 281734Z 2818/2918 29012G18KT P6SM FEW035 SCT050
FM282100 28006KT P6SM SKC

Example: see airport list